Terminal Aerodrome Forecast
Issued by NWS

Home | Current Version | Previous Version | Text Only | Print | Product List | Glossary On
Versions: 1 2 3 4 5 6 7 8 9 10 11 12 13 14 15 16 17 18 19 20 21 22 23 24 25 26 27 28 29 30 31 32 33 34 35 36 37 38
000
FTUS45 KBOI 220835 AAB
TAFMYL
TAF AMD
KMYL 220835Z 2209/2306 VRB04KT P6SM -SN SCT025 BKN035
      TEMPO 2209/2211 3SM -SN BR BKN025
     FM221600 VRB04KT P6SM VCSH OVC030
     FM222000 15007KT 1SM -SN BR OVC010
     FM230300 VRB03KT 2SM -SN BR OVC020=

USA.gov is the U.S. government's official web portal to all federal, state and local government web resources and services.